Vaerlose, Denmark
Current Conditions -  °F | °C
As of 4:20 AM on Tuesday 21 Oct 2014 (Local Time) from EKCH Reporting Station
Scattered Clouds Scattered Clouds  
Wind Chill: 50°   Ceiling: Unl
Heat Index: 50°   Visibility: 6mi
Dew Point: 50°   Wind: 5mph
Humidity: 100%   Direction: 260°W
Pressure: 29.68"   Gusts: NA
Location:  55.78°N, 12.37°E
Report Text: EKCH 210220Z 26004KT 9999 SCT007 10/10 Q1005 NOSIG
Loading
Personal Weather Stations






























Interactive Weather Map
Tropical Storm Tracking
New forecast layout! Learn more

10-Day Weather Forecast

Advertisements
Track Severe Weather on mobile